Time;durP1;ratioP1;P1;durP2;ratioP2;P2;SDS_P1;SDS_P2;PMS_P1;PMS_P2;Temp;Humidity;BMP_temperature;BMP_pressure;BME280_temperature;BME280_humidity;BME280_pressure;Samples;Min_cycle;Max_cycle;Signal;HPM_P1;HPM_P2
2022/12/01 00:01:30;;;;;;;;;;;;;;;7.86;100.00;100207.38;6338769;22;19933;-92
2022/12/01 00:03:55;;;;;;;;;;;;;;;7.89;100.00;100210.81;6340247;22;19914;-91
2022/12/01 00:06:21;;;;;;;;;;;;;;;7.94;100.00;100208.06;6337423;22;20005;-88
2022/12/01 00:11:32;;;;;;;;;;;;;;;7.99;100.00;100208.78;6340314;22;19932;-92
2022/12/01 00:13:58;;;;;;;;;;;;;;;8.01;100.00;100204.38;6340588;22;19911;-88
2022/12/01 00:16:23;;;;;;;;;;;;;;;8.02;100.00;100200.81;6334790;22;20211;-88
2022/12/01 00:18:49;;;;;;;;;;;;;;;8.06;100.00;100201.56;6340996;22;20353;-88
2022/12/01 00:21:15;;;;;;;;;;;;;;;8.08;100.00;100194.50;6339234;22;19907;-87
2022/12/01 00:23:44;;;;;;;;;;;;;;;8.11;100.00;100203.22;6354776;22;20261;-83
2022/12/01 00:26:10;;;;;;;;;;;;;;;8.16;100.00;100201.31;6336952;22;19907;-83
2022/12/01 00:28:35;;;;;;;;;;;;;;;8.18;100.00;100190.72;6337747;22;20370;-83
2022/12/01 00:31:00;;;;;;;;;;;;;;;8.21;100.00;100200.34;6337786;22;19933;-83
2022/12/01 00:33:25;;;;;;;;;;;;;;;8.23;100.00;100193.22;6337798;22;19906;-82
2022/12/01 00:35:56;;;;;;;;;;;;;;;8.23;100.00;100188.81;6335687;22;19910;-82
2022/12/01 00:38:21;;;;;;;;;;;;;;;8.26;100.00;100193.16;6363200;22;19940;-85
2022/12/01 00:40:47;;;;;;;;;;;;;;;8.29;100.00;100188.66;6337781;22;19911;-85
2022/12/01 03:21:18;;;;;;;;;;;;;;;9.13;100.00;100205.69;6334773;22;19930;-83
2022/12/01 03:23:46;;;;;;;;;;;;;;;8.96;100.00;100200.88;6338166;22;19915;-85
2022/12/01 03:26:15;;;;;;;;;;;;;;;8.13;100.00;100200.53;6340005;22;20310;-83
2022/12/01 03:28:42;;;;;;;;;;;;;;;7.77;100.00;100205.81;6338471;22;19950;-86
2022/12/01 03:31:11;;;;;;;;;;;;;;;7.58;100.00;100195.72;6339867;22;19911;-83
2022/12/01 03:33:42;;;;;;;;;;;;;;;7.54;100.00;100195.84;6339501;22;19911;-86
2022/12/01 03:36:30;;;;;;;;;;;;;;;7.38;100.00;100205.88;6339873;22;19956;-85
2022/12/01 03:38:59;;;;;;;;;;;;;;;7.28;100.00;100202.59;6326980;22;19946;-84
2022/12/01 03:41:26;;;;;;;;;;;;;;;7.15;100.00;100207.28;6364556;22;19993;-83
2022/12/01 03:43:55;;;;;;;;;;;;;;;7.09;100.00;100200.34;6339839;22;19911;-84
2022/12/01 03:46:24;;;;;;;;;;;;;;;7.06;100.00;100204.84;6364282;22;19995;-82
2022/12/01 03:48:51;;;;;;;;;;;;;;;6.98;100.00;100204.13;6362261;22;19916;-83
2022/12/01 03:51:20;;;;;;;;;;;;;;;6.88;100.00;100204.31;6337662;22;19937;-83
2022/12/01 03:53:45;;;;;;;;;;;;;;;6.87;100.00;100196.44;6339528;22;20227;-83
2022/12/01 03:56:11;;;;;;;;;;;;;;;6.86;100.00;100199.97;6337567;22;19914;-84
2022/12/01 03:58:39;;;;;;;;;;;;;;;6.84;100.00;100212.31;6339465;22;19918;-85
2022/12/01 04:01:06;;;;;;;;;;;;;;;6.69;100.00;100209.09;6364034;22;19915;-84
2022/12/01 04:03:32;;;;;;;;;;;;;;;6.71;100.00;100212.56;6337947;22;19918;-82
2022/12/01 04:05:57;;;;;;;;;;;;;;;6.66;100.00;100213.56;6336818;22;19910;-83
2022/12/01 04:08:23;;;;;;;;;;;;;;;6.62;100.00;100202.25;6364097;22;20253;-84
2022/12/01 04:10:48;;;;;;;;;;;;;;;6.53;100.00;100207.69;6339299;22;19914;-83
2022/12/01 04:13:22;;;;;;;;;;;;;;;6.57;100.00;100208.47;6339839;22;19911;-84
2022/12/01 04:15:49;;;;;;;;;;;;;;;6.47;100.00;100213.06;6339434;22;19910;-84
2022/12/01 04:18:14;;;;;;;;;;;;;;;6.49;100.00;100204.25;6339318;22;19911;-83
2022/12/01 04:20:42;;;;;;;;;;;;;;;6.41;100.00;100208.75;6337705;22;20281;-84
2022/12/01 04:23:07;;;;;;;;;;;;;;;6.33;100.00;100206.31;6339450;22;19942;-84
2022/12/01 04:25:32;;;;;;;;;;;;;;;6.32;100.00;100214.22;6339738;22;20272;-83
2022/12/01 04:27:57;;;;;;;;;;;;;;;6.32;100.00;100220.34;6339471;22;19942;-83
2022/12/01 04:30:23;;;;;;;;;;;;;;;6.25;100.00;100213.44;6339397;22;20367;-87
2022/12/01 04:32:48;;;;;;;;;;;;;;;6.21;100.00;100216.16;6339299;22;19911;-83
2022/12/01 04:35:13;;;;;;;;;;;;;;;6.11;100.00;100211.09;6337579;22;20003;-83
2022/12/01 04:37:38;;;;;;;;;;;;;;;6.10;100.00;100214.59;6339281;22;19910;-83
2022/12/01 04:40:04;;;;;;;;;;;;;;;6.07;100.00;100216.44;6339343;22;19942;-84
2022/12/01 04:42:29;;;;;;;;;;;;;;;6.10;100.00;100213.75;6337615;22;19910;-84
2022/12/01 08:41:31;;;;;;;;;;;;;;;8.72;100.00;100306.38;6214143;23;20003;-82
2022/12/01 08:43:58;;;;;;;;;;;;;;;8.74;100.00;100311.59;6216235;23;20335;-85
2022/12/01 08:46:23;;;;;;;;;;;;;;;8.74;100.00;100301.03;6216185;23;19970;-84
2022/12/01 08:48:48;;;;;;;;;;;;;;;8.77;100.00;100308.88;6215937;23;19915;-85
2022/12/01 08:51:15;;;;;;;;;;;;;;;8.78;100.00;100313.28;6214528;23;19912;-85
2022/12/01 08:53:42;;;;;;;;;;;;;;;8.78;100.00;100308.00;6214354;23;19916;-82
2022/12/01 08:56:10;;;;;;;;;;;;;;;8.79;100.00;100315.03;6214120;23;19939;-85
2022/12/01 08:58:56;;;;;;;;;;;;;;;8.83;100.00;100315.78;6215915;23;19983;-88
2022/12/01 09:01:22;;;;;;;;;;;;;;;8.84;100.00;100315.75;6213837;23;19942;-84
2022/12/01 09:03:47;;;;;;;;;;;;;;;8.85;100.00;100317.47;6216006;23;20236;-84
2022/12/01 09:06:14;;;;;;;;;;;;;;;8.85;100.00;100314.81;6216062;23;19916;-91
2022/12/01 09:08:40;;;;;;;;;;;;;;;8.86;100.00;100329.78;6214420;23;19916;-88
2022/12/01 09:11:11;;;;;;;;;;;;;;;8.88;100.00;100320.03;6216025;23;19935;-84
2022/12/01 09:13:42;;;;;;;;;;;;;;;8.90;100.00;100323.53;6216207;23;19939;-84
2022/12/01 09:16:09;;;;;;;;;;;;;;;8.92;100.00;100320.84;6215739;23;19955;-87
2022/12/01 09:18:34;;;;;;;;;;;;;;;8.90;100.00;100327.91;6215765;23;19912;-84
2022/12/01 09:21:08;;;;;;;;;;;;;;;8.92;100.00;100328.75;6214182;23;20213;-84
2022/12/01 09:23:33;;;;;;;;;;;;;;;9.14;100.00;100325.50;6214210;23;19947;-92
2022/12/01 09:25:59;;;;;;;;;;;;;;;9.15;100.00;100322.81;6215778;23;20247;-87
2022/12/01 09:28:24;;;;;;;;;;;;;;;8.69;100.00;100330.22;6214321;23;19946;-88
2022/12/01 09:30:49;;;;;;;;;;;;;;;8.72;100.00;100324.84;6215865;23;19922;-85
2022/12/01 09:33:15;;;;;;;;;;;;;;;8.39;100.00;100326.56;6215845;23;19908;-86
2022/12/01 09:35:40;;;;;;;;;;;;;;;7.95;100.00;100339.94;6215505;23;19911;-87
2022/12/01 09:38:05;;;;;;;;;;;;;;;7.78;100.00;100332.41;6215855;23;19912;-85
2022/12/01 09:40:33;;;;;;;;;;;;;;;7.60;100.00;100331.06;6214430;23;19920;-85
2022/12/01 09:42:59;;;;;;;;;;;;;;;7.53;100.00;100344.41;6214422;23;19994;-88
2022/12/01 09:45:31;;;;;;;;;;;;;;;7.40;100.00;100346.44;6215726;23;19919;-86
2022/12/01 09:47:58;;;;;;;;;;;;;;;7.30;100.00;100337.84;6215685;23;19915;-84
2022/12/01 09:50:24;;;;;;;;;;;;;;;7.24;100.00;100343.25;6215625;23;19916;-85
2022/12/01 09:53:05;;;;;;;;;;;;;;;7.15;100.00;100340.78;6215641;23;19912;-84
2022/12/01 09:55:31;;;;;;;;;;;;;;;7.09;100.00;100342.66;6237811;23;20308;-87
2022/12/01 09:57:58;;;;;;;;;;;;;;;7.10;100.00;100346.19;6216687;23;19912;-95
2022/12/01 10:00:35;;;;;;;;;;;;;;;7.00;100.00;100342.84;6217292;23;19919;-87
2022/12/01 10:03:03;;;;;;;;;;;;;;;7.02;100.00;100346.31;6215683;23;19919;-86
2022/12/01 10:05:46;;;;;;;;;;;;;;;6.94;100.00;100342.97;6214493;23;19912;-87
2022/12/01 10:08:14;;;;;;;;;;;;;;;6.94;100.00;100350.88;6216119;23;20328;-83
2022/12/01 10:10:43;;;;;;;;;;;;;;;6.87;100.00;100343.97;6216997;23;19918;-85
2022/12/01 10:13:22;;;;;;;;;;;;;;;6.77;100.00;100345.91;6217378;23;19912;-85
2022/12/01 10:15:47;;;;;;;;;;;;;;;6.71;100.00;100341.63;6217403;23;19912;-86
2022/12/01 10:18:19;;;;;;;;;;;;;;;6.67;100.00;100337.31;6217561;23;19916;-86
2022/12/01 10:21:03;;;;;;;;;;;;;;;6.67;100.00;100336.44;6217430;23;19931;-86
2022/12/01 10:23:38;;;;;;;;;;;;;;;6.68;100.00;100339.03;6215748;23;19919;-86
2022/12/01 10:26:12;;;;;;;;;;;;;;;6.62;100.00;100327.75;6217447;23;19916;-86
2022/12/01 10:28:40;;;;;;;;;;;;;;;6.59;100.00;100333.06;6217314;23;19919;-86
2022/12/01 10:31:26;;;;;;;;;;;;;;;6.56;100.00;100331.38;6217435;23;19916;-87
2022/12/01 10:34:02;;;;;;;;;;;;;;;6.48;100.00;100330.66;6214895;23;19986;-84
2022/12/01 10:36:29;;;;;;;;;;;;;;;6.51;100.00;100325.28;6215740;23;20300;-86
2022/12/01 10:38:54;;;;;;;;;;;;;;;6.45;100.00;100325.44;6215630;23;19918;-84
2022/12/01 10:41:21;;;;;;;;;;;;;;;6.44;100.00;100324.53;6217208;23;20309;-85
2022/12/01 10:43:49;;;;;;;;;;;;;;;6.36;100.00;100329.94;6217168;23;19986;-85
2022/12/01 10:46:14;;;;;;;;;;;;;;;6.34;100.00;100325.59;6215630;23;19919;-85
2022/12/01 10:48:50;;;;;;;;;;;;;;;6.28;100.00;100318.66;6217051;23;19912;-86
2022/12/01 10:51:19;;;;;;;;;;;;;;;6.23;100.00;100315.25;6215287;23;20339;-85
2022/12/01 10:53:44;;;;;;;;;;;;;;;6.20;100.00;100323.19;6215632;23;19919;-86
2022/12/01 10:56:15;;;;;;;;;;;;;;;6.25;100.00;100320.50;6217763;23;19912;-84
2022/12/01 10:58:51;;;;;;;;;;;;;;;6.24;100.00;100324.91;6217106;23;19932;-85
2022/12/01 11:01:18;;;;;;;;;;;;;;;6.21;100.00;100317.03;6215384;23;19908;-85
2022/12/01 11:03:48;;;;;;;;;;;;;;;6.19;100.00;100321.47;6215515;23;19912;-85
2022/12/01 11:06:13;;;;;;;;;;;;;;;6.15;100.00;100325.03;6240741;23;19919;-85
2022/12/01 11:08:40;;;;;;;;;;;;;;;6.11;100.00;100316.34;6215544;23;19916;-86
2022/12/01 11:11:16;;;;;;;;;;;;;;;6.11;100.00;100318.97;6215493;23;19955;-87
2022/12/01 11:13:42;;;;;;;;;;;;;;;6.12;100.00;100317.19;6216788;23;19912;-85
2022/12/01 11:16:27;;;;;;;;;;;;;;;6.12;100.00;100311.94;6216833;23;19947;-86
2022/12/01 11:19:05;;;;;;;;;;;;;;;6.04;100.00;100316.44;6216528;23;19934;-86
2022/12/01 11:21:30;;;;;;;;;;;;;;;6.12;100.00;100304.03;6217271;23;19915;-86
2022/12/01 11:23:56;;;;;;;;;;;;;;;6.09;100.00;100315.47;6215075;23;19919;-86
2022/12/01 11:26:26;;;;;;;;;;;;;;;6.06;100.00;100307.63;6215197;23;20317;-87
2022/12/01 11:28:56;;;;;;;;;;;;;;;6.03;100.00;100317.34;6215568;23;19912;-86
2022/12/01 11:31:23;;;;;;;;;;;;;;;6.02;100.00;100310.34;6215178;23;19912;-86
2022/12/01 11:33:52;;;;;;;;;;;;;;;6.02;100.00;100312.97;6240409;23;19912;-86
2022/12/01 11:36:19;;;;;;;;;;;;;;;5.99;100.00;100306.84;6216634;23;19918;-84
2022/12/01 11:38:46;;;;;;;;;;;;;;;5.91;100.00;100313.09;6213282;23;20320;-85
2022/12/01 11:41:24;;;;;;;;;;;;;;;5.98;100.00;100305.13;6215196;23;20010;-86
2022/12/01 11:43:49;;;;;;;;;;;;;;;5.90;100.00;100309.59;6215049;23;19916;-86
2022/12/01 11:46:14;;;;;;;;;;;;;;;5.92;100.00;100310.47;6216624;23;19919;-86
2022/12/01 11:48:39;;;;;;;;;;;;;;;5.90;100.00;100304.31;6215202;23;19944;-84
2022/12/01 11:51:25;;;;;;;;;;;;;;;5.91;100.00;100306.06;6216381;23;19940;-86
2022/12/01 11:54:03;;;;;;;;;;;;;;;5.92;100.00;100301.69;6215070;23;20248;-89
2022/12/01 11:56:29;;;;;;;;;;;;;;;5.88;100.00;100303.50;6216498;23;19927;-85
2022/12/01 11:58:59;;;;;;;;;;;;;;;5.85;100.00;100298.28;6216548;23;19912;-87
2022/12/01 12:01:44;;;;;;;;;;;;;;;5.83;100.00;100297.44;6215145;23;19911;-90
2022/12/01 12:04:09;;;;;;;;;;;;;;;5.83;100.00;100294.81;6214855;23;19919;-87
2022/12/01 12:06:51;;;;;;;;;;;;;;;5.87;100.00;100296.50;6215166;23;19912;-90
2022/12/01 12:09:25;;;;;;;;;;;;;;;5.80;100.00;100300.13;6214857;23;19987;-88
2022/12/01 12:12:09;;;;;;;;;;;;;;;5.87;100.00;100296.50;6216319;23;19912;-85
2022/12/01 12:14:55;;;;;;;;;;;;;;;5.81;100.00;100293.97;6214609;23;19912;-86
2022/12/01 12:17:35;;;;;;;;;;;;;;;5.78;100.00;100304.53;6213565;23;19912;-88
2022/12/01 12:20:07;;;;;;;;;;;;;;;5.77;100.00;100295.75;6214679;23;19939;-86
2022/12/01 12:22:32;;;;;;;;;;;;;;;5.79;100.00;100291.38;6214597;23;19912;-85
2022/12/01 12:25:00;;;;;;;;;;;;;;;5.76;100.00;100288.78;6214625;23;19912;-87
2022/12/01 12:27:25;;;;;;;;;;;;;;;5.80;100.00;100289.59;6216395;23;20340;-86
2022/12/01 12:29:57;;;;;;;;;;;;;;;5.80;100.00;100286.97;6215825;23;19986;-88
2022/12/01 12:32:25;;;;;;;;;;;;;;;5.76;100.00;100287.88;6215145;23;19912;-88
2022/12/01 12:34:53;;;;;;;;;;;;;;;5.75;100.00;100286.19;6214586;23;19912;-87
2022/12/01 12:37:42;;;;;;;;;;;;;;;5.67;100.00;100290.69;6216025;23;19912;-88
2022/12/01 12:40:21;;;;;;;;;;;;;;;5.74;100.00;100285.28;6213082;23;19923;-91
2022/12/01 12:42:55;;;;;;;;;;;;;;;5.66;100.00;100286.31;6214851;23;19919;-92
2022/12/01 12:45:21;;;;;;;;;;;;;;;5.68;100.00;100284.50;6215277;23;20312;-93
2022/12/01 12:47:59;;;;;;;;;;;;;;;5.66;100.00;100279.28;6216804;23;19912;-91
2022/12/01 12:50:38;;;;;;;;;;;;;;;5.66;100.00;100281.03;6216347;23;19912;-91
2022/12/01 12:53:10;;;;;;;;;;;;;;;5.62;100.00;100281.09;6216033;23;20286;-89
2022/12/01 12:55:38;;;;;;;;;;;;;;;5.72;100.00;100289.72;6214861;23;19912;-93
2022/12/01 12:58:03;;;;;;;;;;;;;;;5.64;100.00;100287.19;6215898;23;19915;-91
2022/12/01 13:00:29;;;;;;;;;;;;;;;5.66;100.00;100275.78;6216007;23;19995;-86
2022/12/01 13:02:56;;;;;;;;;;;;;;;5.61;100.00;100281.97;6215854;23;19915;-85
2022/12/01 13:05:22;;;;;;;;;;;;;;;5.56;100.00;100275.91;6216509;23;20390;-87
2022/12/01 13:08:05;;;;;;;;;;;;;;;5.56;100.00;100275.91;6215913;23;19912;-87
2022/12/01 13:10:49;;;;;;;;;;;;;;;5.55;100.00;100271.56;6214422;23;19912;-85
2022/12/01 13:13:26;;;;;;;;;;;;;;;5.56;100.00;100277.69;6215888;23;20252;-84
2022/12/01 13:15:53;;;;;;;;;;;;;;;5.83;100.00;100268.50;6215884;23;19916;-85
2022/12/01 13:18:21;;;;;;;;;;;;;;;6.23;100.00;100270.50;6215966;23;19923;-84
2022/12/01 13:20:48;;;;;;;;;;;;;;;6.03;100.00;100275.25;6215684;23;19915;-85
2022/12/01 13:23:15;;;;;;;;;;;;;;;5.81;100.00;100270.31;6239335;23;20336;-84
2022/12/01 13:25:42;;;;;;;;;;;;;;;6.51;100.00;100275.28;6213132;23;19912;-86
2022/12/01 13:28:16;;;;;;;;;;;;;;;6.84;100.00;100270.28;6215845;23;19947;-87
2022/12/01 13:30:55;;;;;;;;;;;;;;;6.24;100.00;100274.91;6214730;23;19919;-87
2022/12/01 13:33:21;;;;;;;;;;;;;;;6.02;100.00;100273.53;6215874;23;19919;-87
2022/12/01 13:35:51;;;;;;;;;;;;;;;5.88;100.00;100261.41;6215800;23;20239;-91
2022/12/01 13:38:32;;;;;;;;;;;;;;;5.83;100.00;100265.88;6213880;23;20328;-91
2022/12/01 13:41:16;;;;;;;;;;;;;;;5.70;100.00;100261.72;6215538;23;19961;-87
2022/12/01 13:43:57;;;;;;;;;;;;;;;5.67;100.00;100262.63;6217687;23;19912;-91
2022/12/01 13:46:26;;;;;;;;;;;;;;;5.66;100.00;100255.63;6218286;23;20034;-89
2022/12/01 13:48:53;;;;;;;;;;;;;;;5.66;100.00;100271.38;6217839;23;19990;-89
2022/12/01 13:51:19;;;;;;;;;;;;;;;5.62;100.00;100264.47;6216398;23;19907;-87
2022/12/01 13:54:00;;;;;;;;;;;;;;;5.67;100.00;100272.28;6216049;23;20000;-88
2022/12/01 13:56:46;;;;;;;;;;;;;;;5.55;100.00;100268.06;6215738;23;19965;-87
2022/12/01 13:59:30;;;;;;;;;;;;;;;5.56;100.00;100265.41;6216649;23;19911;-88
2022/12/01 14:02:13;;;;;;;;;;;;;;;5.52;100.00;100262.84;6216015;23;19915;-88
2022/12/01 14:04:39;;;;;;;;;;;;;;;5.56;100.00;100264.53;6217845;23;19919;-86
2022/12/01 14:07:18;;;;;;;;;;;;;;;5.51;100.00;100258.50;6217502;23;19907;-87
2022/12/01 14:09:43;;;;;;;;;;;;;;;5.51;100.00;100258.50;6239771;23;19931;-89
2022/12/01 14:12:24;;;;;;;;;;;;;;;5.50;100.00;100265.50;6217520;23;19915;-91
2022/12/01 14:14:52;;;;;;;;;;;;;;;5.51;100.00;100261.97;6218204;23;19915;-87
2022/12/01 14:17:36;;;;;;;;;;;;;;;5.53;100.00;100259.31;6216033;23;19912;-86
2022/12/01 14:20:21;;;;;;;;;;;;;;;5.42;100.00;100251.59;6217905;23;19915;-87
2022/12/01 14:22:49;;;;;;;;;;;;;;;5.49;100.00;100255.00;6217439;23;19958;-87
2022/12/01 14:25:17;;;;;;;;;;;;;;;5.44;100.00;100255.06;6214098;23;19919;-87
2022/12/01 14:27:42;;;;;;;;;;;;;;;5.43;100.00;100251.56;6217220;23;19946;-86
2022/12/01 14:30:26;;;;;;;;;;;;;;;5.42;100.00;100254.22;6217374;23;19912;-92
2022/12/01 14:33:17;;;;;;;;;;;;;;;5.38;100.00;100242.88;6217148;23;19986;-88
2022/12/01 14:35:43;;;;;;;;;;;;;;;5.44;100.00;100240.19;6217154;23;19919;-89
2022/12/01 14:38:09;;;;;;;;;;;;;;;5.38;100.00;100245.53;6217299;23;19912;-88
2022/12/01 14:40:34;;;;;;;;;;;;;;;5.38;100.00;100245.53;6215740;23;20271;-86
2022/12/01 14:45:57;;;;;;;;;;;;;;;5.37;100.00;100248.16;6217328;23;20255;-86
2022/12/01 14:48:31;;;;;;;;;;;;;;;5.36;100.00;100254.31;6217144;23;20324;-90
2022/12/01 14:51:08;;;;;;;;;;;;;;;5.35;100.00;100247.34;6217157;23;19912;-88
2022/12/01 14:53:36;;;;;;;;;;;;;;;5.34;100.00;100245.59;6215069;23;20283;-87
2022/12/01 14:56:08;;;;;;;;;;;;;;;5.35;100.00;100249.97;6215864;23;19912;-85
2022/12/01 14:58:33;;;;;;;;;;;;;;;5.36;100.00;100242.06;6215561;23;19923;-85
2022/12/01 15:01:07;;;;;;;;;;;;;;;5.38;100.00;100249.91;6215757;23;19912;-86
2022/12/01 15:03:35;;;;;;;;;;;;;;;5.38;100.00;100244.66;6217157;23;19919;-88
2022/12/01 15:06:00;;;;;;;;;;;;;;;5.32;100.00;100242.97;6217154;23;19912;-88
2022/12/01 15:08:27;;;;;;;;;;;;;;;5.35;100.00;100242.06;6214455;23;19918;-87
2022/12/01 15:10:54;;;;;;;;;;;;;;;5.35;100.00;100249.97;6217013;23;19912;-87
2022/12/01 15:13:21;;;;;;;;;;;;;;;5.26;100.00;100250.94;6217020;23;19919;-87
2022/12/01 15:15:59;;;;;;;;;;;;;;;5.30;100.00;100246.50;6215750;23;19939;-87
2022/12/01 15:18:32;;;;;;;;;;;;;;;5.30;100.00;100251.75;6216181;23;19923;-94
2022/12/01 15:21:23;;;;;;;;;;;;;;;5.34;100.00;100253.47;6215877;23;20320;-89
2022/12/01 15:23:54;;;;;;;;;;;;;;;5.30;100.00;100251.75;6195495;23;19919;-87
2022/12/01 15:26:20;;;;;;;;;;;;;;;5.30;100.00;100246.50;6215616;23;20343;-91
2022/12/01 15:28:46;;;;;;;;;;;;;;;5.35;100.00;100249.97;6214681;23;19908;-86
2022/12/01 15:31:12;;;;;;;;;;;;;;;5.32;100.00;100252.63;6215565;23;20351;-87
2022/12/01 15:33:43;;;;;;;;;;;;;;;5.22;100.00;100250.13;6215753;23;19907;-88
2022/12/01 15:36:08;;;;;;;;;;;;;;;5.30;100.00;100247.38;6216315;23;19912;-86
2022/12/01 15:38:45;;;;;;;;;;;;;;;5.30;100.00;100247.38;6214691;23;19946;-94
2022/12/01 15:41:18;;;;;;;;;;;;;;;5.35;100.00;100244.69;6215605;23;19943;-85
2022/12/01 15:43:52;;;;;;;;;;;;;;;5.29;100.00;100245.63;6213306;23;19964;-88
2022/12/01 15:46:18;;;;;;;;;;;;;;;5.27;100.00;100243.03;6237746;23;19930;-86
2022/12/01 15:48:44;;;;;;;;;;;;;;;5.27;100.00;100245.66;6211875;23;20320;-88
2022/12/01 15:51:14;;;;;;;;;;;;;;;5.30;100.00;100251.75;6212434;23;19916;-87
2022/12/01 15:53:46;;;;;;;;;;;;;;;5.27;100.00;100250.91;6211839;23;19947;-87
2022/12/01 15:56:11;;;;;;;;;;;;;;;5.27;100.00;100250.91;6212961;23;19966;-91
2022/12/01 15:58:44;;;;;;;;;;;;;;;5.25;100.00;100254.47;6214447;23;20287;-89
2022/12/01 16:01:10;;;;;;;;;;;;;;;5.21;100.00;100250.13;6213570;23;19962;-87
2022/12/01 16:03:56;;;;;;;;;;;;;;;5.23;100.00;100243.97;6214275;23;19916;-89
2022/12/01 16:06:30;;;;;;;;;;;;;;;5.19;100.00;100252.78;6213383;23;19912;-87
2022/12/01 16:09:18;;;;;;;;;;;;;;;5.16;100.00;100254.59;6212171;23;19916;-89
2022/12/01 16:12:03;;;;;;;;;;;;;;;5.20;100.00;100254.53;6212946;23;19923;-89
2022/12/01 16:14:45;;;;;;;;;;;;;;;5.20;100.00;100254.53;6238151;23;19919;-91
2022/12/01 16:17:15;;;;;;;;;;;;;;;5.22;100.00;100260.63;6212653;23;19912;-92
2022/12/01 16:19:42;;;;;;;;;;;;;;;5.23;100.00;100261.47;6214427;23;19938;-83
2022/12/01 16:22:10;;;;;;;;;;;;;;;5.23;100.00;100257.13;6213850;23;20306;-84
2022/12/01 16:24:43;;;;;;;;;;;;;;;5.20;100.00;100254.53;6211877;23;19950;-86
2022/12/01 16:27:19;;;;;;;;;;;;;;;5.16;100.00;100255.44;6212102;23;19912;-86
2022/12/01 16:30:05;;;;;;;;;;;;;;;5.21;100.00;100258.88;6211935;23;19912;-89
2022/12/01 16:32:41;;;;;;;;;;;;;;;5.17;100.00;100257.19;6213005;23;19912;-89
2022/12/01 16:35:23;;;;;;;;;;;;;;;5.20;100.00;100254.53;6215217;23;19912;-87
2022/12/01 16:37:56;;;;;;;;;;;;;;;5.18;100.00;100258.91;6214893;23;19912;-89
2022/12/01 16:40:22;;;;;;;;;;;;;;;5.16;100.00;100255.44;6236544;23;19920;-90
2022/12/01 16:42:48;;;;;;;;;;;;;;;5.14;100.00;100261.59;6214638;23;19938;-87
2022/12/01 16:45:14;;;;;;;;;;;;;;;5.17;100.00;100262.44;6212888;23;19919;-90
2022/12/01 16:47:40;;;;;;;;;;;;;;;5.13;100.00;100270.38;6214775;23;19915;-87
2022/12/01 16:50:08;;;;;;;;;;;;;;;5.16;100.00;100268.59;6214362;23;19915;-88
2022/12/01 16:52:36;;;;;;;;;;;;;;;5.17;100.00;100270.34;6238266;23;19920;-88
2022/12/01 16:55:01;;;;;;;;;;;;;;;5.16;100.00;100271.22;6210836;23;19916;-87
2022/12/01 16:57:26;;;;;;;;;;;;;;;5.11;100.00;100273.03;6213997;23;20217;-86
2022/12/01 16:59:55;;;;;;;;;;;;;;;5.15;100.00;100268.59;6214401;23;20247;-87
2022/12/01 17:02:20;;;;;;;;;;;;;;;5.08;100.00;100263.44;6212690;23;19966;-85
2022/12/01 17:04:48;;;;;;;;;;;;;;;5.16;100.00;100268.59;6212854;23;19916;-87
2022/12/01 17:07:13;;;;;;;;;;;;;;;5.11;100.00;100273.03;6212553;23;19922;-90
2022/12/01 17:09:38;;;;;;;;;;;;;;;5.13;100.00;100270.38;6236046;23;19982;-84
2022/12/01 17:12:27;;;;;;;;;;;;;;;5.11;100.00;100273.03;6212666;23;19919;-91
2022/12/01 17:14:52;;;;;;;;;;;;;;;5.14;100.00;100277.38;6214298;23;19912;-93
2022/12/01 17:17:18;;;;;;;;;;;;;;;5.15;100.00;100273.84;6236983;23;19974;-87
2022/12/01 17:19:43;;;;;;;;;;;;;;;5.12;100.00;100276.53;6214752;23;20379;-86
2022/12/01 17:22:12;;;;;;;;;;;;;;;5.12;100.00;100280.00;6213291;23;19912;-86
2022/12/01 17:24:37;;;;;;;;;;;;;;;5.16;100.00;100281.72;6212359;23;19966;-85
2022/12/01 17:27:03;;;;;;;;;;;;;;;5.15;100.00;100285.22;6214614;23;20352;-85
2022/12/01 17:29:28;;;;;;;;;;;;;;;5.23;100.00;100282.50;6213242;23;19954;-85
2022/12/01 17:31:56;;;;;;;;;;;;;;;5.13;100.00;100294.91;6214792;23;19912;-91
2022/12/01 17:34:21;;;;;;;;;;;;;;;5.13;100.00;100302.78;6215263;23;20342;-88
2022/12/01 17:36:46;;;;;;;;;;;;;;;5.23;100.00;100299.16;6214110;23;19912;-88
2022/12/01 17:39:12;;;;;;;;;;;;;;;5.20;100.00;100304.44;6211168;23;19912;-89
2022/12/01 17:41:37;;;;;;;;;;;;;;;5.17;100.00;100303.59;6214766;23;19926;-86
2022/12/01 17:44:03;;;;;;;;;;;;;;;5.16;100.00;100302.75;6212495;23;19982;-88
2022/12/01 17:46:28;;;;;;;;;;;;;;;5.22;100.00;100305.28;6213239;23;20375;-87
2022/12/01 17:48:54;;;;;;;;;;;;;;;5.23;100.00;100314.94;6238025;23;19919;-88
2022/12/01 17:51:19;;;;;;;;;;;;;;;5.23;100.00;100309.66;6214492;23;20022;-87
2022/12/01 17:53:44;;;;;;;;;;;;;;;5.23;100.00;100298.28;6236822;23;20347;-87
2022/12/01 17:56:12;;;;;;;;;;;;;;;5.24;100.00;100295.63;6212628;23;19912;-89
2022/12/01 17:58:41;;;;;;;;;;;;;;;5.28;100.00;100296.44;6212610;23;19912;-90
2022/12/01 18:01:11;;;;;;;;;;;;;;;5.27;100.00;100292.97;6213511;23;20335;-86
2022/12/01 18:03:37;;;;;;;;;;;;;;;5.24;100.00;100277.22;6214609;23;20312;-87
2022/12/01 18:06:02;;;;;;;;;;;;;;;5.34;100.00;100272.72;6214436;23;19912;-87
2022/12/01 18:08:28;;;;;;;;;;;;;;;5.26;100.00;100267.59;6212702;23;19912;-88
2022/12/01 18:11:11;;;;;;;;;;;;;;;;;;;;;
2022/12/01 18:13:39;;;;;;;;;;;;;;;5.21;100.00;100258.88;6214342;23;20396;-86
2022/12/01 18:16:09;;;;;;;;;;;;;;;5.26;100.00;100267.59;6212118;23;20274;-86
2022/12/01 18:18:35;;;;;;;;;;;;;;;5.23;100.00;100262.38;6213935;23;19966;-88
2022/12/01 18:21:03;;;;;;;;;;;;;;;5.24;100.00;100255.34;6214414;23;19911;-88
2022/12/01 18:23:28;;;;;;;;;;;;;;;5.28;100.00;100259.66;6211359;23;19912;-88
2022/12/01 18:26:24;;;;;;;;;;;;;;;5.26;100.00;100262.34;6213342;23;20027;-94
2022/12/01 18:28:53;;;;;;;;;;;;;;;5.25;100.00;100264.97;6213209;23;19922;-89
2022/12/01 18:31:19;;;;;;;;;;;;;;;5.26;100.00;100271.97;6239515;23;19943;-88
2022/12/01 18:33:45;;;;;;;;;;;;;;;5.24;100.00;100265.88;6215292;23;19982;-87
2022/12/01 18:36:11;;;;;;;;;;;;;;;5.24;100.00;100263.22;6215610;23;19999;-87
2022/12/01 18:38:37;;;;;;;;;;;;;;;5.20;100.00;100272.94;6213601;23;19966;-87
2022/12/01 18:41:02;;;;;;;;;;;;;;;5.23;100.00;100272.88;6211953;23;19916;-86
2022/12/01 18:43:28;;;;;;;;;;;;;;;5.17;100.00;100275.59;6238629;23;20324;-86
2022/12/01 18:45:53;;;;;;;;;;;;;;;5.17;100.00;100279.94;6213584;23;19924;-88
2022/12/01 18:48:18;;;;;;;;;;;;;;;5.25;100.00;100270.25;6239210;23;19931;-87
2022/12/01 18:50:44;;;;;;;;;;;;;;;5.24;100.00;100271.97;6214323;23;19990;-86
2022/12/01 18:53:09;;;;;;;;;;;;;;;5.18;100.00;100272.06;6239761;23;19951;-88
2022/12/01 18:55:35;;;;;;;;;;;;;;;5.18;100.00;100269.44;6238193;23;20308;-85
2022/12/01 18:58:00;;;;;;;;;;;;;;;5.20;100.00;100262.41;6214014;23;19912;-86
2022/12/01 19:00:25;;;;;;;;;;;;;;;5.23;100.00;100267.63;6215486;23;20380;-86
2022/12/01 19:02:50;;;;;;;;;;;;;;;5.28;100.00;100270.16;6213697;23;19969;-85
2022/12/01 19:05:16;;;;;;;;;;;;;;;5.24;100.00;100269.34;6239101;23;20239;-87
2022/12/01 19:07:41;;;;;;;;;;;;;;;5.22;100.00;100260.63;6215772;23;19986;-86
2022/12/01 19:10:30;;;;;;;;;;;;;;;5.20;100.00;100259.78;6213992;23;20317;-93
2022/12/01 19:12:55;;;;;;;;;;;;;;;5.19;100.00;100252.78;6189721;23;20271;-86
2022/12/01 19:15:23;;;;;;;;;;;;;;;5.21;100.00;100256.25;6213086;23;19959;-87
2022/12/01 19:17:48;;;;;;;;;;;;;;;5.25;100.00;100254.47;6215895;23;19991;-86
2022/12/01 19:20:13;;;;;;;;;;;;;;;5.23;100.00;100251.88;6212292;23;19935;-85
2022/12/01 19:22:39;;;;;;;;;;;;;;;5.45;100.00;100248.91;6238719;23;20268;-86
2022/12/01 19:25:10;;;;;;;;;;;;;;;5.72;100.00;100252.03;6212256;23;19956;-89
2022/12/01 19:27:35;;;;;;;;;;;;;;;5.41;100.00;100249.88;6213903;23;19987;-87
2022/12/01 19:30:00;;;;;;;;;;;;;;;5.33;100.00;100243.84;6213666;23;19962;-87
2022/12/01 19:32:32;;;;;;;;;;;;;;;5.30;100.00;100251.75;6214346;23;19912;-91